Taunton 2W

41° 53' 56"N, 71° 08' 19"W, Elevation 50 ft.
Eastern Time

Hourly observations for the last 72 hours

Date Time Temperature (°F) Humi-
dity

(%)
Wind
(mph)
Pressure Rain (in) Sun
(W/m2)
UV ET
(in)
Air Dew 6 Hour 1 Hr 3 Hr 6 Hr Day
Alt
(in)
Sea
Level

(mb)
Max Min
21 10:00 70.0 64.9 84 NNE 5 G 9 30.10 1019.4 0.00 243 1.8 0.007
21 09:00 68.6 64.9 88 N 4 G 9 30.11 1019.6 0.00 206 1.1 0.003
21 08:00 66.4 64.3 66.4 60.2 93 NNW 3 G 8 30.11 1019.8 0.00 107 0.0 0.001
21 07:00 63.9 62.7 96 NNW 3 G 9 30.11 1019.6 0.00 46 0.0 0.000
21 06:00 62.9 61.7 96 N 1 G 2 30.10 1019.2 0.00 0 0.0 0.000
21 05:00 62.8 61.9 97 N 2 G 4 30.09 1019.2 0.00 0 0.0 0.000
21 04:00 62.2 61.3 97 N 3 G 6 30.10 1019.4 0.00 0 0.0 0.000
21 03:00 61.7 60.8 97 N 2 G 5 30.12 1020.0 0.00 0 0.0 0.000
21 02:00 61.5 60.3 65.8 61.3 96 NNE 1 G 3 30.12 1020.1 0.00 0 0.0 0.000
21 01:00 61.3 60.2 96 NNE 1 G 2 30.13 1020.3 0.00 0 0.0 0.000
21 00:00 63.2 61.4 94 NNE 1 G 4 30.14 1020.7 0.00 0 0.0 0.146
20 23:00 64.3 62.2 93 NE 3 G 6 30.14 1020.7 0.00 0 0.0 0.146
20 22:00 64.4 62.3 93 N 3 G 4 30.14 1020.8 0.00 0 0.0 0.146
20 21:00 64.4 61.7 91 NE 2 G 7 30.14 1020.6 0.00 0 0.0 0.145
20 20:00 65.8 61.5 75.4 65.8 86 NNE 2 G 5 30.12 1020.1 0.00 0 0.0 0.144
20 19:00 68.5 61.7 79 ENE 5 G 10 30.12 1019.9 0.00 44 0.0 0.140
20 18:00 71.2 62.5 74 NNE 5 G 11 30.11 1019.8 0.00 193 0.5 0.133
20 17:00 73.4 63.4 71 NNE 8 G 12 30.12 1020.0 0.00 422 1.5 0.120
20 16:00 74.2 64.6 72 NE 6 G 17 30.12 1020.0 0.00 598 2.8 0.105
20 15:00 75.0 63.7 68 NE 6 G 13 30.12 1019.9 0.00 742 4.7 0.087
20 14:00 75.4 64.1 75.5 66.4 68 ENE 8 G 16 30.11 1019.7 0.00 888 6.1 0.066
20 13:00 74.4 65.2 73 N 7 G 19 30.11 1019.8 0.00 879 7.0 0.044
20 12:00 73.4 65.4 76 N 8 G 16 30.12 1020.0 0.00 1051 7.3 0.027
20 11:00 73.6 66.3 78 ENE 9 G 16 30.13 1020.4 0.00 1055 6.1 0.014
20 10:00 70.6 65.5 84 N 4 G 12 30.14 1020.7 0.00 362 2.7 0.008
20 09:00 68.6 64.2 86 NNE 9 G 21 30.12 1020.1 0.00 216 1.2 0.004
20 08:00 66.4 63.7 66.8 65.9 91 NNW 6 G 12 30.11 1019.8 0.00 32 0.0 0.003
20 07:00 66.6 63.6 90 N 3 G 15 30.10 1019.4 0.00 30 0.0 0.002
20 06:00 65.9 63.5 92 N 4 G 9 30.08 1018.7 0.00 0 0.0 0.002
20 05:00 66.7 63.7 90 N 4 G 9 30.06 1018.0 0.00 0 0.0 0.001
20 04:00 66.6 63.9 91 NNE 3 G 12 30.07 1018.2 0.00 0 0.0 0.000
20 03:00 66.5 64.1 92 N 4 G 6 30.06 1018.0 0.00 0 0.0 0.000
20 02:00 66.5 64.4 66.7 65.7 93 NNE 1 G 8 30.06 1017.9 0.00 0 0.0 0.000
20 01:00 65.9 64.4 95 N 4 G 11 30.06 1018.0 0.00 0 0.0 0.000
20 00:00 65.8 64.0 94 NE 5 G 10 30.06 1018.0 0.00 0 0.0 0.135
19 23:00 66.7 63.7 90 N 3 G 8 30.06 1017.9 0.00 0 0.0 0.134
19 22:00 66.6 62.9 88 N 5 G 8 30.06 1018.0 0.00 0 0.0 0.133
19 21:00 66.2 62.2 87 NNE 5 G 8 30.06 1017.9 0.00 0 0.0 0.132
19 20:00 66.5 61.9 73.3 66.3 85 NNE 6 G 12 30.05 1017.7 0.00 0 0.0 0.131
19 19:00 67.0 61.7 83 NE 5 G 12 30.03 1017.1 0.00 16 0.0 0.129
19 18:00 68.9 61.8 78 N 5 G 12 30.03 1017.0 0.00 167 0.0 0.122
19 17:00 68.7 61.6 78 ENE 9 G 24 30.02 1016.7 0.00 132 1.0 0.113
19 16:00 70.4 61.7 74 N 8 G 20 30.01 1016.3 0.00 246 2.5 0.099
19 15:00 72.4 63.3 73 N 9 G 20 30.00 1016.0 0.00 865 3.7 0.082
19 14:00 72.8 63.3 72.8 66.2 72 NE 11 G 20 30.00 1016.1 0.00 928 7.1 0.061
19 13:00 71.5 62.8 74 NE 10 G 18 29.99 1015.5 0.00 923 7.7 0.044
19 12:00 71.1 63.2 76 NNE 8 G 16 30.00 1015.8 0.00 856 4.4 0.030
19 11:00 70.0 63.2 79 NNE 8 G 15 30.00 1015.8 0.00 459 4.3 0.018
19 10:00 69.2 62.8 80 ENE 3 G 23 29.98 1015.2 0.00 394 2.9 0.008
19 09:00 67.3 63.6 88 NNE 5 G 12 29.95 1014.4 0.00 202 1.2 0.003
19 08:00 66.2 62.5 66.3 64.6 88 NNE 7 G 19 29.94 1014.0 0.00 139 0.7 0.001
19 07:00 65.4 63.3 93 N 5 G 11 29.92 1013.2 0.00 33 0.0 0.000
19 06:00 65.2 63.7 95 N 4 G 10 29.91 1012.8 0.00 0 0.0 0.000
19 05:00 65.0 63.5 95 NNE 2 G 8 29.89 1012.2 0.00 0 0.0 0.000
19 04:00 64.8 63.3 95 NE 4 G 9 29.89 1012.1 0.00 0 0.0 0.000
19 03:00 64.9 63.7 96 NNE 3 G 10 29.88 1012.0 0.00 0 0.0 0.000
19 02:00 64.7 63.5 72.1 64.6 96 NNE 5 G 11 29.87 1011.6 0.01 0.00 0 0.0 0.000
19 01:00 64.7 63.5 96 NNE 5 G 12 29.88 1011.7 0.00 0 0.0 0.000
19 00:00 66.0 65.1 97 NNE 6 G 13 29.86 1011.2 3.06 0 0.0 0.103
18 23:00 67.1 66.2 97 N 9 G 18 29.85 1010.9 0.01 0.01 3.06 0 0.0 0.103
18 22:00 71.2 70.6 98 NNE 5 G 13 29.82 1010.0 3.05 0 0.0 0.103
18 21:00 71.7 71.1 98 Calm 29.82 1009.8 3.05 0 0.0 0.103
18 20:00 71.8 70.9 87.5 71.3 97 E 0 G 2 29.79 1008.9 0.15 3.05 3.05 0 0.0 0.103
18 19:00 72.0 71.1 97 E 1 G 2 29.78 1008.6 3.05 14 0.0 0.102
18 18:00 72.0 71.1 97 NNW 1 G 5 29.77 1008.2 0.15 3.05 53 0.0 0.101
18 17:00 71.6 70.4 96 NNW 5 G 11 29.78 1008.5 2.88 2.90 2.90 7 0.0 0.100
18 16:00 82.3 76.3 82 SSE 9 G 14 29.72 1006.3 0.02 0.02 11 0.0 0.091
18 15:00 84.9 75.7 74 S 4 G 6 29.73 1006.9 0.00 320 2.5 0.075
18 14:00 85.4 77.0 85.4 73.9 76 SSW 6 G 13 29.75 1007.3 0.00 946 5.9 0.058
18 13:00 82.0 76.0 82 SSW 6 G 10 29.76 1007.7 0.00 360 3.7 0.045
18 12:00 82.5 76.1 81 SSW 6 G 11 29.77 1008.2 0.00 512 4.4 0.028
18 11:00 80.2 75.6 86 S 4 G 11 29.78 1008.6 0.00 585 4.7 0.015

Data generated by WxSolution Version 1.9.1.6, Build 2018.07.01.